METAR Formatted Surface Weather Observation
Issued by NWS

Home | Current Version | Previous Version | Text Only | Print | Product List | Glossary On
Versions: 1 2 3 4
000
SPZS31 NSTU 222119
MTRSPP
SPECI NSTU 222118Z 10021G26KT 3SM -SHRA VV004 26/25 A2994=


USA.gov is the U.S. government's official web portal to all federal, state and local government web resources and services.